Terminal Aerodrome Forecast
Issued by NWS

Home | Current Version | Previous Version | Text Only | Print | Product List | Glossary On
Versions: 1 2 3 4 5 6 7 8 9 10 11 12
307
FTUS45 KTFX 230520
TAFHLN
TAF
KHLN 230520Z 2306/2406 27007KT P6SM SCT060 OVC090
     FM230800 28008KT P6SM VCSH SCT040 OVC060
      TEMPO 2310/2314 -SHRA BKN040
     FM231400 29008KT P6SM -SHRA SCT025 OVC040 PROB30 2315/2319 5SM
      SHRA BR BKN020
     FM232100 30009KT P6SM VCSH SCT035 OVC050 PROB30 2321/2403 -SHRA
      BKN035=

USA.gov is the U.S. government's official web portal to all federal, state and local government web resources and services.